sensor_id;sensor_type;location;lat;lon;timestamp;temperature;humidity
4763;DHT22;2395;50.738;7.122;2022-09-12T00:01:43;15.50;99.90
4763;DHT22;2395;50.738;7.122;2022-09-12T00:04:10;15.50;99.90
4763;DHT22;2395;50.738;7.122;2022-09-12T00:06:37;15.50;99.90
4763;DHT22;2395;50.738;7.122;2022-09-12T00:09:07;15.40;99.90
4763;DHT22;2395;50.738;7.122;2022-09-12T00:11:36;15.40;99.90
4763;DHT22;2395;50.738;7.122;2022-09-12T00:14:06;15.40;99.90
4763;DHT22;2395;50.738;7.122;2022-09-12T00:16:36;15.30;99.90
4763;DHT22;2395;50.738;7.122;2022-09-12T00:19:04;15.40;99.90
4763;DHT22;2395;50.738;7.122;2022-09-12T00:21:32;15.50;99.90
4763;DHT22;2395;50.738;7.122;2022-09-12T00:24:01;15.40;99.90
4763;DHT22;2395;50.738;7.122;2022-09-12T00:26:28;15.30;99.90
4763;DHT22;2395;50.738;7.122;2022-09-12T00:28:55;15.40;99.90
4763;DHT22;2395;50.738;7.122;2022-09-12T00:31:24;15.40;99.90
4763;DHT22;2395;50.738;7.122;2022-09-12T00:33:56;15.40;99.90
4763;DHT22;2395;50.738;7.122;2022-09-12T00:36:26;15.30;99.90
4763;DHT22;2395;50.738;7.122;2022-09-12T00:38:54;15.30;99.90
4763;DHT22;2395;50.738;7.122;2022-09-12T00:41:24;15.20;99.90
4763;DHT22;2395;50.738;7.122;2022-09-12T00:43:55;15.20;99.90
4763;DHT22;2395;50.738;7.122;2022-09-12T00:46:38;15.20;99.90
4763;DHT22;2395;50.738;7.122;2022-09-12T00:49:14;15.10;99.90
4763;DHT22;2395;50.738;7.122;2022-09-12T00:51:47;15.10;99.90
4763;DHT22;2395;50.738;7.122;2022-09-12T00:54:20;15.10;99.90
4763;DHT22;2395;50.738;7.122;2022-09-12T00:56:52;15.10;99.90
4763;DHT22;2395;50.738;7.122;2022-09-12T00:59:28;15.00;99.90
4763;DHT22;2395;50.738;7.122;2022-09-12T01:01:58;15.10;99.90
4763;DHT22;2395;50.738;7.122;2022-09-12T01:04:26;15.00;99.90
4763;DHT22;2395;50.738;7.122;2022-09-12T01:06:55;14.90;99.90
4763;DHT22;2395;50.738;7.122;2022-09-12T01:09:24;15.00;99.90
4763;DHT22;2395;50.738;7.122;2022-09-12T01:11:52;15.00;99.90
4763;DHT22;2395;50.738;7.122;2022-09-12T01:14:19;15.10;99.90
4763;DHT22;2395;50.738;7.122;2022-09-12T01:16:47;15.10;99.90
4763;DHT22;2395;50.738;7.122;2022-09-12T01:19:31;15.10;99.90
4763;DHT22;2395;50.738;7.122;2022-09-12T01:22:27;15.20;99.90
4763;DHT22;2395;50.738;7.122;2022-09-12T01:25:22;15.30;99.90
4763;DHT22;2395;50.738;7.122;2022-09-12T01:28:22;15.30;99.90
4763;DHT22;2395;50.738;7.122;2022-09-12T01:31:07;15.20;99.90
4763;DHT22;2395;50.738;7.122;2022-09-12T01:33:50;15.20;99.90
4763;DHT22;2395;50.738;7.122;2022-09-12T01:36:35;15.20;99.90
4763;DHT22;2395;50.738;7.122;2022-09-12T01:39:15;15.30;99.90
4763;DHT22;2395;50.738;7.122;2022-09-12T01:41:56;15.30;99.90
4763;DHT22;2395;50.738;7.122;2022-09-12T01:44:38;15.30;99.90
4763;DHT22;2395;50.738;7.122;2022-09-12T01:47:19;15.20;99.90
4763;DHT22;2395;50.738;7.122;2022-09-12T01:49:54;15.10;99.90
4763;DHT22;2395;50.738;7.122;2022-09-12T01:52:28;15.10;99.90
4763;DHT22;2395;50.738;7.122;2022-09-12T01:55:08;15.00;99.90
4763;DHT22;2395;50.738;7.122;2022-09-12T01:57:43;15.00;99.90
4763;DHT22;2395;50.738;7.122;2022-09-12T02:00:16;15.00;99.90
4763;DHT22;2395;50.738;7.122;2022-09-12T02:02:48;15.00;99.90
4763;DHT22;2395;50.738;7.122;2022-09-12T02:05:22;15.00;99.90
4763;DHT22;2395;50.738;7.122;2022-09-12T02:08:00;15.00;99.90
4763;DHT22;2395;50.738;7.122;2022-09-12T02:10:35;15.00;99.90
4763;DHT22;2395;50.738;7.122;2022-09-12T02:13:11;15.00;99.90
4763;DHT22;2395;50.738;7.122;2022-09-12T02:15:43;15.00;99.90
4763;DHT22;2395;50.738;7.122;2022-09-12T02:18:20;15.00;99.90
4763;DHT22;2395;50.738;7.122;2022-09-12T02:20:48;15.00;99.90
4763;DHT22;2395;50.738;7.122;2022-09-12T02:23:19;14.90;99.90
4763;DHT22;2395;50.738;7.122;2022-09-12T02:25:54;14.90;99.90
4763;DHT22;2395;50.738;7.122;2022-09-12T02:28:29;14.90;99.90
4763;DHT22;2395;50.738;7.122;2022-09-12T02:31:05;14.90;99.90
4763;DHT22;2395;50.738;7.122;2022-09-12T02:33:45;14.80;99.90
4763;DHT22;2395;50.738;7.122;2022-09-12T02:36:30;14.80;99.90
4763;DHT22;2395;50.738;7.122;2022-09-12T02:39:01;14.80;99.90
4763;DHT22;2395;50.738;7.122;2022-09-12T02:41:28;14.80;99.90
4763;DHT22;2395;50.738;7.122;2022-09-12T02:43:55;14.80;99.90
4763;DHT22;2395;50.738;7.122;2022-09-12T02:46:25;14.80;99.90
4763;DHT22;2395;50.738;7.122;2022-09-12T02:48:59;14.80;99.90
4763;DHT22;2395;50.738;7.122;2022-09-12T02:51:26;14.80;99.90
4763;DHT22;2395;50.738;7.122;2022-09-12T02:53:53;14.70;99.90
4763;DHT22;2395;50.738;7.122;2022-09-12T02:56:23;14.70;99.90
4763;DHT22;2395;50.738;7.122;2022-09-12T02:58:56;14.80;99.90
4763;DHT22;2395;50.738;7.122;2022-09-12T03:01:43;14.70;99.90
4763;DHT22;2395;50.738;7.122;2022-09-12T03:04:48;14.60;99.90
4763;DHT22;2395;50.738;7.122;2022-09-12T03:07:45;14.60;99.90
4763;DHT22;2395;50.738;7.122;2022-09-12T03:10:32;14.50;99.90
4763;DHT22;2395;50.738;7.122;2022-09-12T03:13:16;14.50;99.90
4763;DHT22;2395;50.738;7.122;2022-09-12T03:15:55;14.50;99.90
4763;DHT22;2395;50.738;7.122;2022-09-12T03:18:39;14.50;99.90
4763;DHT22;2395;50.738;7.122;2022-09-12T03:21:20;14.50;99.90
4763;DHT22;2395;50.738;7.122;2022-09-12T03:24:01;14.40;99.90
4763;DHT22;2395;50.738;7.122;2022-09-12T03:26:39;14.40;99.90
4763;DHT22;2395;50.738;7.122;2022-09-12T03:29:10;14.30;99.90
4763;DHT22;2395;50.738;7.122;2022-09-12T03:31:48;14.30;99.90
4763;DHT22;2395;50.738;7.122;2022-09-12T03:34:16;14.30;99.90
4763;DHT22;2395;50.738;7.122;2022-09-12T03:36:46;14.30;99.90
4763;DHT22;2395;50.738;7.122;2022-09-12T03:39:13;14.30;99.90
4763;DHT22;2395;50.738;7.122;2022-09-12T03:41:40;14.30;99.90
4763;DHT22;2395;50.738;7.122;2022-09-12T03:44:07;14.30;99.90
4763;DHT22;2395;50.738;7.122;2022-09-12T03:46:35;14.30;99.90
4763;DHT22;2395;50.738;7.122;2022-09-12T03:49:02;14.30;99.90
4763;DHT22;2395;50.738;7.122;2022-09-12T03:51:29;14.30;99.90
4763;DHT22;2395;50.738;7.122;2022-09-12T03:53:57;14.30;99.90
4763;DHT22;2395;50.738;7.122;2022-09-12T03:56:24;14.30;99.90
4763;DHT22;2395;50.738;7.122;2022-09-12T03:58:51;14.40;99.90
4763;DHT22;2395;50.738;7.122;2022-09-12T04:01:19;14.40;99.90
4763;DHT22;2395;50.738;7.122;2022-09-12T04:03:48;14.40;99.90
4763;DHT22;2395;50.738;7.122;2022-09-12T04:06:18;14.40;99.90
4763;DHT22;2395;50.738;7.122;2022-09-12T04:08:48;14.40;99.90
4763;DHT22;2395;50.738;7.122;2022-09-12T04:11:18;14.40;99.90
4763;DHT22;2395;50.738;7.122;2022-09-12T04:13:47;14.40;99.90
4763;DHT22;2395;50.738;7.122;2022-09-12T04:16:15;14.30;99.90
4763;DHT22;2395;50.738;7.122;2022-09-12T04:18:43;14.30;99.90
4763;DHT22;2395;50.738;7.122;2022-09-12T04:21:12;14.30;99.90
4763;DHT22;2395;50.738;7.122;2022-09-12T04:23:41;14.40;99.90
4763;DHT22;2395;50.738;7.122;2022-09-12T04:26:09;14.30;99.90
4763;DHT22;2395;50.738;7.122;2022-09-12T04:28:40;14.30;99.90
4763;DHT22;2395;50.738;7.122;2022-09-12T04:31:09;14.30;99.90
4763;DHT22;2395;50.738;7.122;2022-09-12T04:33:38;14.30;99.90
4763;DHT22;2395;50.738;7.122;2022-09-12T04:36:07;14.30;99.90
4763;DHT22;2395;50.738;7.122;2022-09-12T04:38:36;14.30;99.90
4763;DHT22;2395;50.738;7.122;2022-09-12T04:41:10;14.30;99.90
4763;DHT22;2395;50.738;7.122;2022-09-12T04:43:39;14.20;99.90
4763;DHT22;2395;50.738;7.122;2022-09-12T04:46:06;14.20;99.90
4763;DHT22;2395;50.738;7.122;2022-09-12T04:48:34;14.20;99.90
4763;DHT22;2395;50.738;7.122;2022-09-12T04:51:09;14.30;99.90
4763;DHT22;2395;50.738;7.122;2022-09-12T04:53:37;14.30;99.90
4763;DHT22;2395;50.738;7.122;2022-09-12T04:56:07;14.30;99.90
4763;DHT22;2395;50.738;7.122;2022-09-12T04:58:36;14.30;99.90
4763;DHT22;2395;50.738;7.122;2022-09-12T05:01:06;14.20;99.90
4763;DHT22;2395;50.738;7.122;2022-09-12T05:03:35;14.30;99.90
4763;DHT22;2395;50.738;7.122;2022-09-12T05:06:05;14.30;99.90
4763;DHT22;2395;50.738;7.122;2022-09-12T05:08:34;14.40;99.90
4763;DHT22;2395;50.738;7.122;2022-09-12T05:11:02;14.40;99.90
4763;DHT22;2395;50.738;7.122;2022-09-12T05:13:31;14.50;99.90
4763;DHT22;2395;50.738;7.122;2022-09-12T05:16:00;14.50;99.90
4763;DHT22;2395;50.738;7.122;2022-09-12T05:18:31;14.50;99.90
4763;DHT22;2395;50.738;7.122;2022-09-12T05:20:59;14.50;99.90
4763;DHT22;2395;50.738;7.122;2022-09-12T05:23:28;14.50;99.90
4763;DHT22;2395;50.738;7.122;2022-09-12T05:25:58;14.50;99.90
4763;DHT22;2395;50.738;7.122;2022-09-12T05:28:32;14.50;99.90
4763;DHT22;2395;50.738;7.122;2022-09-12T05:31:02;14.60;99.90
4763;DHT22;2395;50.738;7.122;2022-09-12T05:33:33;14.60;99.90
4763;DHT22;2395;50.738;7.122;2022-09-12T05:36:02;14.60;99.90
4763;DHT22;2395;50.738;7.122;2022-09-12T05:38:30;14.80;99.90
4763;DHT22;2395;50.738;7.122;2022-09-12T05:41:02;15.10;99.90
4763;DHT22;2395;50.738;7.122;2022-09-12T05:43:30;15.20;99.90
4763;DHT22;2395;50.738;7.122;2022-09-12T05:46:00;15.30;99.90
4763;DHT22;2395;50.738;7.122;2022-09-12T05:48:27;15.30;99.90
4763;DHT22;2395;50.738;7.122;2022-09-12T05:51:00;15.40;99.90
4763;DHT22;2395;50.738;7.122;2022-09-12T05:53:28;15.80;99.90
4763;DHT22;2395;50.738;7.122;2022-09-12T05:56:04;15.80;99.90
4763;DHT22;2395;50.738;7.122;2022-09-12T05:58:32;15.90;99.90
4763;DHT22;2395;50.738;7.122;2022-09-12T06:01:04;16.00;99.90
4763;DHT22;2395;50.738;7.122;2022-09-12T06:03:33;15.90;99.90
4763;DHT22;2395;50.738;7.122;2022-09-12T06:06:03;15.80;99.90
4763;DHT22;2395;50.738;7.122;2022-09-12T06:08:32;15.90;99.90
4763;DHT22;2395;50.738;7.122;2022-09-12T06:11:02;15.80;99.90
4763;DHT22;2395;50.738;7.122;2022-09-12T06:13:32;15.80;99.90
4763;DHT22;2395;50.738;7.122;2022-09-12T06:16:02;15.80;99.90
4763;DHT22;2395;50.738;7.122;2022-09-12T06:18:31;15.90;99.90
4763;DHT22;2395;50.738;7.122;2022-09-12T06:21:02;16.00;99.90
4763;DHT22;2395;50.738;7.122;2022-09-12T06:23:30;16.00;99.90
4763;DHT22;2395;50.738;7.122;2022-09-12T06:25:58;16.10;99.90
4763;DHT22;2395;50.738;7.122;2022-09-12T06:28:25;16.10;99.90
4763;DHT22;2395;50.738;7.122;2022-09-12T06:30:52;16.00;99.90
4763;DHT22;2395;50.738;7.122;2022-09-12T06:33:19;16.00;99.90
4763;DHT22;2395;50.738;7.122;2022-09-12T06:35:46;16.10;99.90
4763;DHT22;2395;50.738;7.122;2022-09-12T06:38:14;16.00;99.90
4763;DHT22;2395;50.738;7.122;2022-09-12T06:40:42;16.10;99.90
4763;DHT22;2395;50.738;7.122;2022-09-12T06:43:11;16.10;99.90
4763;DHT22;2395;50.738;7.122;2022-09-12T06:45:39;16.20;99.90
4763;DHT22;2395;50.738;7.122;2022-09-12T06:48:13;16.30;99.90
4763;DHT22;2395;50.738;7.122;2022-09-12T06:50:40;16.30;99.90
4763;DHT22;2395;50.738;7.122;2022-09-12T06:53:07;16.30;99.90
4763;DHT22;2395;50.738;7.122;2022-09-12T06:55:35;16.30;99.90
4763;DHT22;2395;50.738;7.122;2022-09-12T06:58:03;16.60;99.90
4763;DHT22;2395;50.738;7.122;2022-09-12T07:00:31;16.60;99.90
4763;DHT22;2395;50.738;7.122;2022-09-12T07:02:58;16.50;99.90
4763;DHT22;2395;50.738;7.122;2022-09-12T07:05:26;16.40;99.90
4763;DHT22;2395;50.738;7.122;2022-09-12T07:07:53;16.60;99.90
4763;DHT22;2395;50.738;7.122;2022-09-12T07:10:20;16.60;99.90
4763;DHT22;2395;50.738;7.122;2022-09-12T07:12:48;16.70;99.90
4763;DHT22;2395;50.738;7.122;2022-09-12T07:15:15;16.60;99.90
4763;DHT22;2395;50.738;7.122;2022-09-12T07:17:42;16.60;99.90
4763;DHT22;2395;50.738;7.122;2022-09-12T07:20:09;16.70;99.90
4763;DHT22;2395;50.738;7.122;2022-09-12T07:22:36;16.80;99.90
4763;DHT22;2395;50.738;7.122;2022-09-12T07:25:03;16.90;99.90
4763;DHT22;2395;50.738;7.122;2022-09-12T07:27:31;17.00;99.90
4763;DHT22;2395;50.738;7.122;2022-09-12T07:29:59;17.10;99.90
4763;DHT22;2395;50.738;7.122;2022-09-12T07:32:26;17.20;99.90
4763;DHT22;2395;50.738;7.122;2022-09-12T07:34:53;17.40;99.90
4763;DHT22;2395;50.738;7.122;2022-09-12T07:37:22;17.40;99.90
4763;DHT22;2395;50.738;7.122;2022-09-12T07:39:49;17.50;99.90
4763;DHT22;2395;50.738;7.122;2022-09-12T07:42:17;17.60;99.90
4763;DHT22;2395;50.738;7.122;2022-09-12T07:44:44;17.60;99.90
4763;DHT22;2395;50.738;7.122;2022-09-12T07:47:12;17.40;99.90
4763;DHT22;2395;50.738;7.122;2022-09-12T07:49:39;17.40;99.90
4763;DHT22;2395;50.738;7.122;2022-09-12T07:52:06;17.50;99.90
4763;DHT22;2395;50.738;7.122;2022-09-12T07:54:33;17.40;99.90
4763;DHT22;2395;50.738;7.122;2022-09-12T07:57:01;17.50;99.90
4763;DHT22;2395;50.738;7.122;2022-09-12T07:59:27;17.70;99.90
4763;DHT22;2395;50.738;7.122;2022-09-12T08:01:55;17.90;99.90
4763;DHT22;2395;50.738;7.122;2022-09-12T08:04:23;17.90;99.90
4763;DHT22;2395;50.738;7.122;2022-09-12T08:06:50;17.90;99.90
4763;DHT22;2395;50.738;7.122;2022-09-12T08:09:19;18.10;99.90
4763;DHT22;2395;50.738;7.122;2022-09-12T08:11:46;18.00;99.90
4763;DHT22;2395;50.738;7.122;2022-09-12T08:14:13;18.20;99.90
4763;DHT22;2395;50.738;7.122;2022-09-12T08:16:42;18.20;99.90
4763;DHT22;2395;50.738;7.122;2022-09-12T08:19:09;18.00;99.90
4763;DHT22;2395;50.738;7.122;2022-09-12T08:21:37;18.30;99.90
4763;DHT22;2395;50.738;7.122;2022-09-12T08:24:05;18.40;99.90
4763;DHT22;2395;50.738;7.122;2022-09-12T08:26:33;18.40;99.90
4763;DHT22;2395;50.738;7.122;2022-09-12T08:29:01;18.30;99.90
4763;DHT22;2395;50.738;7.122;2022-09-12T08:31:28;18.30;99.90
4763;DHT22;2395;50.738;7.122;2022-09-12T08:34:01;18.50;99.90
4763;DHT22;2395;50.738;7.122;2022-09-12T08:36:30;18.70;99.90
4763;DHT22;2395;50.738;7.122;2022-09-12T08:39:00;18.80;99.90
4763;DHT22;2395;50.738;7.122;2022-09-12T08:41:30;18.90;99.90
4763;DHT22;2395;50.738;7.122;2022-09-12T08:44:14;19.10;99.90
4763;DHT22;2395;50.738;7.122;2022-09-12T08:47:14;19.10;99.90
4763;DHT22;2395;50.738;7.122;2022-09-12T08:49:52;19.10;99.90
4763;DHT22;2395;50.738;7.122;2022-09-12T08:52:28;19.30;99.90
4763;DHT22;2395;50.738;7.122;2022-09-12T08:55:01;19.40;99.90
4763;DHT22;2395;50.738;7.122;2022-09-12T08:57:31;19.50;99.90
4763;DHT22;2395;50.738;7.122;2022-09-12T08:59:58;19.60;99.90
4763;DHT22;2395;50.738;7.122;2022-09-12T09:02:53;19.70;99.90
4763;DHT22;2395;50.738;7.122;2022-09-12T09:05:41;19.90;99.90
4763;DHT22;2395;50.738;7.122;2022-09-12T09:08:39;20.00;99.90
4763;DHT22;2395;50.738;7.122;2022-09-12T09:11:31;20.10;99.90
4763;DHT22;2395;50.738;7.122;2022-09-12T09:14:18;20.10;99.90
4763;DHT22;2395;50.738;7.122;2022-09-12T09:17:20;20.20;99.90
4763;DHT22;2395;50.738;7.122;2022-09-12T09:19:57;20.10;99.90
4763;DHT22;2395;50.738;7.122;2022-09-12T09:22:38;20.10;99.90
4763;DHT22;2395;50.738;7.122;2022-09-12T09:25:15;20.30;99.90
4763;DHT22;2395;50.738;7.122;2022-09-12T09:27:52;20.50;99.90
4763;DHT22;2395;50.738;7.122;2022-09-12T09:30:23;20.50;99.90
4763;DHT22;2395;50.738;7.122;2022-09-12T09:32:53;20.40;99.90
4763;DHT22;2395;50.738;7.122;2022-09-12T09:35:30;20.70;99.90
4763;DHT22;2395;50.738;7.122;2022-09-12T09:38:16;21.00;99.90
4763;DHT22;2395;50.738;7.122;2022-09-12T09:40:57;21.20;99.90
4763;DHT22;2395;50.738;7.122;2022-09-12T09:43:37;21.30;99.90
4763;DHT22;2395;50.738;7.122;2022-09-12T09:46:05;21.50;99.90
4763;DHT22;2395;50.738;7.122;2022-09-12T09:48:34;21.60;99.90
4763;DHT22;2395;50.738;7.122;2022-09-12T09:51:04;21.40;99.90
4763;DHT22;2395;50.738;7.122;2022-09-12T09:53:38;21.60;99.90
4763;DHT22;2395;50.738;7.122;2022-09-12T09:56:12;21.60;99.90
4763;DHT22;2395;50.738;7.122;2022-09-12T09:58:53;21.70;99.90
4763;DHT22;2395;50.738;7.122;2022-09-12T10:01:20;21.90;99.90
4763;DHT22;2395;50.738;7.122;2022-09-12T10:03:49;21.80;99.90
4763;DHT22;2395;50.738;7.122;2022-09-12T10:06:24;21.90;99.90
4763;DHT22;2395;50.738;7.122;2022-09-12T10:09:16;22.00;99.90
4763;DHT22;2395;50.738;7.122;2022-09-12T10:11:46;22.00;99.90
4763;DHT22;2395;50.738;7.122;2022-09-12T10:14:37;22.00;99.90
4763;DHT22;2395;50.738;7.122;2022-09-12T10:17:26;22.20;99.90
4763;DHT22;2395;50.738;7.122;2022-09-12T10:19:55;22.30;99.90
4763;DHT22;2395;50.738;7.122;2022-09-12T10:22:25;22.40;99.90
4763;DHT22;2395;50.738;7.122;2022-09-12T10:24:57;22.40;99.90
4763;DHT22;2395;50.738;7.122;2022-09-12T10:27:29;22.50;99.90
4763;DHT22;2395;50.738;7.122;2022-09-12T10:30:03;22.50;99.90
4763;DHT22;2395;50.738;7.122;2022-09-12T10:32:35;22.60;99.90
4763;DHT22;2395;50.738;7.122;2022-09-12T10:35:15;22.70;99.90
4763;DHT22;2395;50.738;7.122;2022-09-12T10:37:52;22.70;99.90
4763;DHT22;2395;50.738;7.122;2022-09-12T10:40:23;22.80;99.90
4763;DHT22;2395;50.738;7.122;2022-09-12T10:42:54;23.00;99.90
4763;DHT22;2395;50.738;7.122;2022-09-12T10:45:26;23.00;99.90
4763;DHT22;2395;50.738;7.122;2022-09-12T10:47:55;22.90;99.90
4763;DHT22;2395;50.738;7.122;2022-09-12T10:50:35;23.00;99.90
4763;DHT22;2395;50.738;7.122;2022-09-12T10:53:14;23.30;99.90
4763;DHT22;2395;50.738;7.122;2022-09-12T10:56:00;23.30;99.90
4763;DHT22;2395;50.738;7.122;2022-09-12T10:58:49;23.20;99.90
4763;DHT22;2395;50.738;7.122;2022-09-12T11:01:35;23.40;99.90
4763;DHT22;2395;50.738;7.122;2022-09-12T11:04:20;23.50;99.90
4763;DHT22;2395;50.738;7.122;2022-09-12T11:07:05;23.60;99.90
4763;DHT22;2395;50.738;7.122;2022-09-12T11:09:49;23.70;99.90
4763;DHT22;2395;50.738;7.122;2022-09-12T11:12:30;23.80;99.90
4763;DHT22;2395;50.738;7.122;2022-09-12T11:15:22;23.90;99.90
4763;DHT22;2395;50.738;7.122;2022-09-12T11:18:09;24.20;99.90
4763;DHT22;2395;50.738;7.122;2022-09-12T11:21:06;24.30;99.90
4763;DHT22;2395;50.738;7.122;2022-09-12T11:23:59;24.20;99.90
4763;DHT22;2395;50.738;7.122;2022-09-12T11:26:57;24.40;99.90
4763;DHT22;2395;50.738;7.122;2022-09-12T11:29:46;24.40;99.90
4763;DHT22;2395;50.738;7.122;2022-09-12T11:35:44;24.60;99.90
4763;DHT22;2395;50.738;7.122;2022-09-12T11:38:51;24.70;99.90
4763;DHT22;2395;50.738;7.122;2022-09-12T11:41:25;24.80;99.90
4763;DHT22;2395;50.738;7.122;2022-09-12T11:44:00;24.90;99.90
4763;DHT22;2395;50.738;7.122;2022-09-12T11:46:37;25.00;99.90
4763;DHT22;2395;50.738;7.122;2022-09-12T11:49:25;25.10;99.90
4763;DHT22;2395;50.738;7.122;2022-09-12T11:52:00;25.10;99.90
4763;DHT22;2395;50.738;7.122;2022-09-12T11:54:37;25.00;99.90
4763;DHT22;2395;50.738;7.122;2022-09-12T11:57:13;25.10;99.90
4763;DHT22;2395;50.738;7.122;2022-09-12T11:59:50;25.30;99.90
4763;DHT22;2395;50.738;7.122;2022-09-12T12:02:25;25.30;99.90
4763;DHT22;2395;50.738;7.122;2022-09-12T12:05:14;25.20;99.90
4763;DHT22;2395;50.738;7.122;2022-09-12T12:07:51;25.30;99.90
4763;DHT22;2395;50.738;7.122;2022-09-12T12:10:23;25.50;99.90
4763;DHT22;2395;50.738;7.122;2022-09-12T12:12:58;25.40;99.90
4763;DHT22;2395;50.738;7.122;2022-09-12T12:15:29;25.50;99.90
4763;DHT22;2395;50.738;7.122;2022-09-12T12:18:02;25.70;99.90
4763;DHT22;2395;50.738;7.122;2022-09-12T12:20:34;25.70;99.90
4763;DHT22;2395;50.738;7.122;2022-09-12T12:23:02;26.00;99.90
4763;DHT22;2395;50.738;7.122;2022-09-12T12:25:49;25.80;99.90
4763;DHT22;2395;50.738;7.122;2022-09-12T12:28:54;26.10;99.90
4763;DHT22;2395;50.738;7.122;2022-09-12T12:31:24;26.20;99.90
4763;DHT22;2395;50.738;7.122;2022-09-12T12:34:06;26.40;99.90
4763;DHT22;2395;50.738;7.122;2022-09-12T12:36:48;26.40;99.90
4763;DHT22;2395;50.738;7.122;2022-09-12T12:43:04;26.40;99.90
4763;DHT22;2395;50.738;7.122;2022-09-12T12:46:09;26.70;99.90
4763;DHT22;2395;50.738;7.122;2022-09-12T12:48:56;26.80;99.90
4763;DHT22;2395;50.738;7.122;2022-09-12T12:51:43;26.90;99.90
4763;DHT22;2395;50.738;7.122;2022-09-12T12:54:46;26.90;99.90
4763;DHT22;2395;50.738;7.122;2022-09-12T12:57:23;27.00;99.90
4763;DHT22;2395;50.738;7.122;2022-09-12T12:59:57;26.90;99.90
4763;DHT22;2395;50.738;7.122;2022-09-12T13:02:30;27.20;99.90
4763;DHT22;2395;50.738;7.122;2022-09-12T13:05:01;27.40;99.90
4763;DHT22;2395;50.738;7.122;2022-09-12T13:07:35;27.60;99.90
4763;DHT22;2395;50.738;7.122;2022-09-12T13:10:05;27.90;99.90
4763;DHT22;2395;50.738;7.122;2022-09-12T13:12:36;27.90;99.90
4763;DHT22;2395;50.738;7.122;2022-09-12T13:15:28;27.80;99.90
4763;DHT22;2395;50.738;7.122;2022-09-12T13:18:16;28.10;99.90
4763;DHT22;2395;50.738;7.122;2022-09-12T13:20:52;27.80;99.90
4763;DHT22;2395;50.738;7.122;2022-09-12T13:23:24;27.90;99.90
4763;DHT22;2395;50.738;7.122;2022-09-12T13:25:53;28.20;99.90
4763;DHT22;2395;50.738;7.122;2022-09-12T13:28:23;28.40;99.90
4763;DHT22;2395;50.738;7.122;2022-09-12T13:30:57;28.40;99.90
4763;DHT22;2395;50.738;7.122;2022-09-12T13:33:33;28.30;99.90
4763;DHT22;2395;50.738;7.122;2022-09-12T13:36:33;28.60;99.90
4763;DHT22;2395;50.738;7.122;2022-09-12T13:39:17;28.50;99.90
4763;DHT22;2395;50.738;7.122;2022-09-12T13:42:02;28.70;99.90
4763;DHT22;2395;50.738;7.122;2022-09-12T13:44:52;28.80;99.90
4763;DHT22;2395;50.738;7.122;2022-09-12T13:47:26;28.80;99.90
4763;DHT22;2395;50.738;7.122;2022-09-12T13:49:58;29.00;99.90
4763;DHT22;2395;50.738;7.122;2022-09-12T13:52:28;29.00;99.90
4763;DHT22;2395;50.738;7.122;2022-09-12T13:55:00;29.40;99.90
4763;DHT22;2395;50.738;7.122;2022-09-12T13:57:35;29.20;99.90
4763;DHT22;2395;50.738;7.122;2022-09-12T14:00:11;29.20;99.90
4763;DHT22;2395;50.738;7.122;2022-09-12T14:02:45;29.70;99.90
4763;DHT22;2395;50.738;7.122;2022-09-12T14:05:18;29.80;99.30
4763;DHT22;2395;50.738;7.122;2022-09-12T14:07:52;29.70;99.70
4763;DHT22;2395;50.738;7.122;2022-09-12T14:10:27;30.00;98.90
4763;DHT22;2395;50.738;7.122;2022-09-12T14:12:58;30.20;98.70
4763;DHT22;2395;50.738;7.122;2022-09-12T14:15:29;30.20;98.10
4763;DHT22;2395;50.738;7.122;2022-09-12T14:18:00;30.30;98.10
4763;DHT22;2395;50.738;7.122;2022-09-12T14:20:29;30.40;97.60
4763;DHT22;2395;50.738;7.122;2022-09-12T14:23:00;30.80;96.90
4763;DHT22;2395;50.738;7.122;2022-09-12T14:25:39;30.80;95.50
4763;DHT22;2395;50.738;7.122;2022-09-12T14:28:13;31.10;95.40
4763;DHT22;2395;50.738;7.122;2022-09-12T14:30:57;31.20;95.30
4763;DHT22;2395;50.738;7.122;2022-09-12T14:33:32;31.00;94.00
4763;DHT22;2395;50.738;7.122;2022-09-12T14:36:18;31.00;94.10
4763;DHT22;2395;50.738;7.122;2022-09-12T14:38:49;31.30;93.30
4763;DHT22;2395;50.738;7.122;2022-09-12T14:41:26;31.90;92.70
4763;DHT22;2395;50.738;7.122;2022-09-12T14:43:58;32.30;91.20
4763;DHT22;2395;50.738;7.122;2022-09-12T14:46:30;32.20;90.50
4763;DHT22;2395;50.738;7.122;2022-09-12T14:49:05;32.00;90.20
4763;DHT22;2395;50.738;7.122;2022-09-12T14:51:37;32.20;90.20
4763;DHT22;2395;50.738;7.122;2022-09-12T14:54:21;31.60;88.30
4763;DHT22;2395;50.738;7.122;2022-09-12T14:57:04;31.70;88.80
4763;DHT22;2395;50.738;7.122;2022-09-12T14:59:37;32.30;86.20
4763;DHT22;2395;50.738;7.122;2022-09-12T15:02:24;32.10;86.30
4763;DHT22;2395;50.738;7.122;2022-09-12T15:04:52;31.80;85.60
4763;DHT22;2395;50.738;7.122;2022-09-12T15:07:27;31.60;84.30
4763;DHT22;2395;50.738;7.122;2022-09-12T15:09:59;31.30;85.50
4763;DHT22;2395;50.738;7.122;2022-09-12T15:12:29;31.00;85.00
4763;DHT22;2395;50.738;7.122;2022-09-12T15:14:58;30.80;84.60
4763;DHT22;2395;50.738;7.122;2022-09-12T15:17:28;31.10;84.70
4763;DHT22;2395;50.738;7.122;2022-09-12T15:19:55;31.30;83.30
4763;DHT22;2395;50.738;7.122;2022-09-12T15:22:22;31.50;81.80
4763;DHT22;2395;50.738;7.122;2022-09-12T15:24:50;31.80;81.30
4763;DHT22;2395;50.738;7.122;2022-09-12T15:27:17;31.80;81.00
4763;DHT22;2395;50.738;7.122;2022-09-12T15:29:46;31.80;79.50
4763;DHT22;2395;50.738;7.122;2022-09-12T15:32:22;32.30;78.30
4763;DHT22;2395;50.738;7.122;2022-09-12T15:34:50;32.60;76.70
4763;DHT22;2395;50.738;7.122;2022-09-12T15:37:19;32.80;75.20
4763;DHT22;2395;50.738;7.122;2022-09-12T15:39:47;32.80;75.40
4763;DHT22;2395;50.738;7.122;2022-09-12T15:42:15;33.10;72.90
4763;DHT22;2395;50.738;7.122;2022-09-12T15:44:45;33.40;71.20
4763;DHT22;2395;50.738;7.122;2022-09-12T15:47:12;33.20;70.50
4763;DHT22;2395;50.738;7.122;2022-09-12T15:49:40;33.20;70.60
4763;DHT22;2395;50.738;7.122;2022-09-12T15:52:08;33.10;69.70
4763;DHT22;2395;50.738;7.122;2022-09-12T15:54:40;33.20;69.40
4763;DHT22;2395;50.738;7.122;2022-09-12T15:57:07;32.70;67.90
4763;DHT22;2395;50.738;7.122;2022-09-12T15:59:35;32.80;68.90
4763;DHT22;2395;50.738;7.122;2022-09-12T16:02:04;32.20;69.00
4763;DHT22;2395;50.738;7.122;2022-09-12T16:04:31;31.20;70.30
4763;DHT22;2395;50.738;7.122;2022-09-12T16:06:58;30.60;71.70
4763;DHT22;2395;50.738;7.122;2022-09-12T16:09:25;30.80;72.80
4763;DHT22;2395;50.738;7.122;2022-09-12T16:11:52;30.90;71.20
4763;DHT22;2395;50.738;7.122;2022-09-12T16:14:19;31.10;71.50
4763;DHT22;2395;50.738;7.122;2022-09-12T16:16:51;31.20;70.60
4763;DHT22;2395;50.738;7.122;2022-09-12T16:19:20;31.00;70.70
4763;DHT22;2395;50.738;7.122;2022-09-12T16:21:47;30.60;71.40
4763;DHT22;2395;50.738;7.122;2022-09-12T16:24:15;30.30;71.50
4763;DHT22;2395;50.738;7.122;2022-09-12T16:26:42;30.00;73.60
4763;DHT22;2395;50.738;7.122;2022-09-12T16:29:11;29.60;74.00
4763;DHT22;2395;50.738;7.122;2022-09-12T16:31:38;29.50;74.90
4763;DHT22;2395;50.738;7.122;2022-09-12T16:34:06;29.30;74.80
4763;DHT22;2395;50.738;7.122;2022-09-12T16:36:34;29.20;75.00
4763;DHT22;2395;50.738;7.122;2022-09-12T16:39:01;28.90;74.80
4763;DHT22;2395;50.738;7.122;2022-09-12T16:41:29;28.60;75.50
4763;DHT22;2395;50.738;7.122;2022-09-12T16:43:56;28.30;76.30
4763;DHT22;2395;50.738;7.122;2022-09-12T16:46:24;28.30;76.90
4763;DHT22;2395;50.738;7.122;2022-09-12T16:48:56;28.60;76.90
4763;DHT22;2395;50.738;7.122;2022-09-12T16:51:25;28.80;76.80